Bavaria

Go HERE for most recent data if this page is not up to date.

Jump to table bottom
Date Time Temp F RH % AVG Wind Max Wind Wind Dir 24 Snow Depth
*01/25/20 02 18.0 89 12 20 SW - 232 0.7 151.3
*01/25/20 01 18.9 89 10 15 W - 280 0.5 64.2
*01/25/20 00 17.9 88 8 12 W - 289 0.4 63.5
*01/24/20 23 20.1 89 8 15 W - 251 0.4 64.6
*01/24/20 22 20.5 90 10 15 SW - 231 0.3 64.4
*01/24/20 21 20.9 90 9 15 SW - 222 0.4 63.6
*01/24/20 20 21.2 90 9 15 SW - 238 0.4 63.9
*01/24/20 19 21.2 90 9 14 SW - 219 0.4 64.2
*01/24/20 18 21.2 90 8 18 W - 278 0.3 63.8
*01/24/20 17 22.0 90 8 15 W - 277 0.3 151.3
*01/24/20 16 23.0 88 10 17 SW - 233 0.1 63.8
*01/24/20 15 23.1 88 8 14 SW - 239 0.1 151.3
*01/24/20 14 23.2 88 9 13 SW - 232 0.0 63.1
*01/24/20 13 24.9 84 4 12 SW - 236 -0.0 63.1
*01/24/20 12 30.0 81 3 8 W - 253 -0.3 63.2
*01/24/20 11 27.4 84 3 9 W - 249 -0.0 63.4
*01/24/20 10 25.6 88 1 4 W - 253 -0.0 63.6
*01/24/20 09 23.3 89 2 5 SW - 239 0.2 64.0
*01/24/20 08 20.0 89 4 7 W - 253 0.3 64.4
*01/24/20 07 20.4 89 1 5 W - 288 0.2 64.2
*01/24/20 06 19.7 89 1 5 NW - 311 0.2 64.5
*01/24/20 05 20.0 89 3 6 W - 262 0.2 64.0
*01/24/20 04 20.5 89 5 7 W - 252 0.2 64.2
*01/24/20 03 21.0 90 4 7 W - 279 0.2 64.2
*01/24/20 02 21.4 90 4 8 W - 259 0.2 64.3
*01/24/20 01 22.0 90 7 10 W - 258 0.2 64.1
*01/24/20 00 22.6 90 8 13 SW - 245 0.2 64.1
.